createdAt,value
2018-06-22T00:01:18.565Z,98688.94
2018-06-22T00:03:47.728Z,98691.43
2018-06-22T00:06:16.900Z,98694.80
2018-06-22T00:08:46.071Z,98698.50
2018-06-22T00:11:15.219Z,98705.33
2018-06-22T00:13:44.379Z,98705.75
2018-06-22T00:16:13.544Z,98700.69
2018-06-22T00:18:42.703Z,98703.59
2018-06-22T00:21:11.865Z,98701.05
2018-06-22T00:23:41.096Z,98704.83
2018-06-22T00:26:10.262Z,98703.50
2018-06-22T00:28:39.419Z,98703.94
2018-06-22T00:31:08.588Z,98705.96
2018-06-22T00:33:37.759Z,98711.08
2018-06-22T00:36:06.909Z,98708.54
2018-06-22T00:38:36.064Z,98711.84
2018-06-22T00:41:05.240Z,98715.07
2018-06-22T00:43:34.413Z,98724.36
2018-06-22T00:46:03.594Z,98719.15
2018-06-22T00:48:32.747Z,98716.40
2018-06-22T00:51:01.917Z,98720.61
2018-06-22T00:53:48.115Z,98718.25
2018-06-22T00:56:17.272Z,98717.36
2018-06-22T00:58:46.445Z,98711.00
2018-06-22T01:01:15.596Z,98713.88
2018-06-22T01:03:44.787Z,98705.87
2018-06-22T01:06:13.940Z,98708.42
2018-06-22T01:08:43.203Z,98715.52
2018-06-22T01:11:12.347Z,98707.92
2018-06-22T01:13:41.509Z,98710.91
2018-06-22T01:16:10.659Z,98714.31
2018-06-22T01:18:39.915Z,98708.83
2018-06-22T01:21:09.080Z,98713.97
2018-06-22T01:23:38.247Z,98709.70
2018-06-22T01:26:07.423Z,98710.96
2018-06-22T01:28:36.599Z,98710.43
2018-06-22T01:31:05.750Z,98704.55
2018-06-22T01:33:34.921Z,98703.92
2018-06-22T01:36:04.089Z,98702.66
2018-06-22T01:38:33.271Z,98699.71
2018-06-22T01:41:02.430Z,98706.78
2018-06-22T01:43:31.578Z,98707.19
2018-06-22T01:46:00.737Z,98716.39
2018-06-22T01:48:29.882Z,98703.37
2018-06-22T01:50:59.038Z,98703.23
2018-06-22T01:53:28.171Z,98712.46
2018-06-22T01:55:57.336Z,98708.66
2018-06-22T01:58:26.501Z,98712.37
2018-06-22T02:00:55.655Z,98711.64
2018-06-22T02:03:24.792Z,98714.15
2018-06-22T02:05:54.002Z,98707.34
2018-06-22T02:08:23.115Z,98714.15
2018-06-22T02:10:52.275Z,98715.47
2018-06-22T02:13:21.423Z,98708.23
2018-06-22T02:15:50.573Z,98702.92
2018-06-22T02:18:19.721Z,98704.63
2018-06-22T02:20:48.882Z,98708.34
2018-06-22T02:23:18.036Z,98706.92
2018-06-22T02:25:47.193Z,98704.92
2018-06-22T02:28:16.355Z,98708.33
2018-06-22T02:30:45.512Z,98698.97
2018-06-22T02:33:14.667Z,98699.02
2018-06-22T02:35:43.807Z,98706.53
2018-06-22T02:38:12.964Z,98707.77
2018-06-22T02:40:42.124Z,98708.91
2018-06-22T02:43:11.282Z,98709.48
2018-06-22T02:45:40.431Z,98711.61
2018-06-22T02:48:09.579Z,98712.26
2018-06-22T02:50:38.774Z,98717.26
2018-06-22T02:53:08.034Z,98716.87
2018-06-22T02:55:37.180Z,98715.52
2018-06-22T02:58:06.348Z,98722.19
2018-06-22T03:00:35.503Z,98717.68
2018-06-22T03:03:04.660Z,98717.10
2018-06-22T03:05:33.821Z,98724.30
2018-06-22T03:08:02.975Z,98724.23
2018-06-22T03:10:32.134Z,98723.45
2018-06-22T03:13:01.364Z,98731.80
2018-06-22T03:15:30.518Z,98732.11
2018-06-22T03:17:59.675Z,98738.05
2018-06-22T03:20:28.877Z,98738.75
2018-06-22T03:22:58.036Z,98742.13
2018-06-22T03:25:27.197Z,98741.17
2018-06-22T03:27:56.373Z,98743.52
2018-06-22T03:30:25.550Z,98732.25
2018-06-22T03:32:54.692Z,98738.15
2018-06-22T03:35:23.855Z,98739.03
2018-06-22T03:37:53.011Z,98738.61
2018-06-22T03:40:22.190Z,98741.28
2018-06-22T03:42:51.340Z,98734.58
2018-06-22T03:45:20.495Z,98731.27
2018-06-22T03:47:49.631Z,98740.86
2018-06-22T03:50:18.802Z,98734.36
2018-06-22T03:52:47.947Z,98735.80
2018-06-22T03:55:17.111Z,98737.41
2018-06-22T03:57:46.252Z,98740.37
2018-06-22T04:00:15.411Z,98740.64
2018-06-22T04:02:44.564Z,98748.27
2018-06-22T04:05:13.721Z,98751.17
2018-06-22T04:07:42.875Z,98749.33
2018-06-22T04:10:12.061Z,98752.13
2018-06-22T04:12:41.220Z,98755.05
2018-06-22T04:15:10.359Z,98747.50
2018-06-22T04:17:44.653Z,98745.95
2018-06-22T04:20:13.799Z,98743.92
2018-06-22T04:22:42.969Z,98751.19
2018-06-22T04:25:12.122Z,98738.47
2018-06-22T04:27:41.288Z,98740.61
2018-06-22T04:30:10.440Z,98732.15
2018-06-22T04:32:39.599Z,98733.38
2018-06-22T04:35:08.761Z,98738.37
2018-06-22T04:37:38.295Z,98748.94
2018-06-22T04:40:07.452Z,98736.53
2018-06-22T04:42:36.646Z,98739.94
2018-06-22T04:45:05.972Z,98735.66
2018-06-22T04:47:35.222Z,98733.41
2018-06-22T04:50:04.367Z,98745.80
2018-06-22T04:52:33.529Z,98734.58
2018-06-22T04:55:02.676Z,98726.51
2018-06-22T04:57:31.835Z,98723.73
2018-06-22T05:00:01.008Z,98727.50
2018-06-22T05:02:30.257Z,98722.95
2018-06-22T05:04:59.449Z,98725.94
2018-06-22T05:07:28.611Z,98724.27
2018-06-22T05:09:57.773Z,98722.95
2018-06-22T05:12:26.916Z,98713.83
2018-06-22T05:14:56.067Z,98717.69
2018-06-22T05:17:25.225Z,98717.78
2018-06-22T05:19:54.367Z,98722.59
2018-06-22T05:22:23.533Z,98728.69
2018-06-22T05:24:52.772Z,98733.67
2018-06-22T05:27:21.919Z,98734.17
2018-06-22T05:29:51.079Z,98727.00
2018-06-22T05:32:20.284Z,98725.88
2018-06-22T05:34:49.450Z,98717.78
2018-06-22T05:37:18.608Z,98707.16
2018-06-22T05:39:47.850Z,98724.59
2018-06-22T05:42:17.001Z,98715.77
2018-06-22T05:44:46.168Z,98714.14
2018-06-22T05:47:15.324Z,98716.61
2018-06-22T05:49:44.480Z,98712.98
2018-06-22T05:52:13.648Z,98704.56
2018-06-22T05:54:42.827Z,98718.77
2018-06-22T05:57:11.981Z,98711.05
2018-06-22T05:59:41.175Z,98696.67
2018-06-22T06:02:10.336Z,98713.22
2018-06-22T06:04:39.504Z,98692.38
2018-06-22T06:07:08.655Z,98704.45
2018-06-22T06:09:37.832Z,98704.77
2018-06-22T06:12:06.983Z,98705.17
2018-06-22T06:14:36.144Z,98698.78
2018-06-22T06:17:05.300Z,98710.84
2018-06-22T06:19:34.460Z,98707.38
2018-06-22T06:22:03.613Z,98703.09
2018-06-22T06:24:32.776Z,98723.05
2018-06-22T06:27:01.940Z,98725.58
2018-06-22T06:29:31.120Z,98720.84
2018-06-22T06:32:00.279Z,98725.55
2018-06-22T06:34:29.447Z,98722.58
2018-06-22T06:36:58.604Z,98718.86
2018-06-22T06:39:27.909Z,98729.11
2018-06-22T06:41:57.099Z,98732.52
2018-06-22T06:44:26.224Z,98735.34
2018-06-22T06:46:55.392Z,98745.50
2018-06-22T06:49:24.544Z,98736.77
2018-06-22T06:51:53.731Z,98736.34
2018-06-22T06:54:22.892Z,98732.22
2018-06-22T06:56:52.096Z,98727.22
2018-06-22T06:59:21.226Z,98741.17
2018-06-22T07:01:50.391Z,98733.95
2018-06-22T07:04:19.563Z,98735.63
2018-06-22T07:06:48.720Z,98731.52
2018-06-22T07:09:17.892Z,98716.28
2018-06-22T07:11:47.062Z,98726.44
2018-06-22T07:14:16.231Z,98721.36
2018-06-22T07:16:45.388Z,98729.39
2018-06-22T07:19:14.554Z,98731.48
2018-06-22T07:21:43.725Z,98733.52
2018-06-22T07:24:12.920Z,98734.92
2018-06-22T07:26:42.084Z,98736.09
2018-06-22T07:29:11.256Z,98721.70
2018-06-22T07:31:40.416Z,98729.80
2018-06-22T07:34:09.589Z,98734.91
2018-06-22T07:36:38.769Z,98731.95
2018-06-22T07:39:10.779Z,98739.97
2018-06-22T07:41:40.101Z,98737.02
2018-06-22T07:44:09.656Z,98724.63
2018-06-22T07:46:38.809Z,98758.20
2018-06-22T07:49:07.975Z,98745.91
2018-06-22T07:51:37.119Z,98746.68
2018-06-22T07:54:06.324Z,98754.80
2018-06-22T07:56:35.483Z,98750.42
2018-06-22T07:59:04.690Z,98748.76
2018-06-22T08:01:33.845Z,98752.15
2018-06-22T08:04:03.025Z,98749.98
2018-06-22T08:06:32.356Z,98757.15
2018-06-22T08:09:01.512Z,98751.70
2018-06-22T08:11:30.685Z,98756.31
2018-06-22T08:13:59.843Z,98756.81
2018-06-22T08:16:29.015Z,98753.10
2018-06-22T08:18:58.189Z,98744.64
2018-06-22T08:21:27.380Z,98743.37
2018-06-22T08:23:56.536Z,98739.11
2018-06-22T08:26:25.692Z,98745.50
2018-06-22T08:28:54.865Z,98737.00
2018-06-22T08:31:24.015Z,98742.98
2018-06-22T08:33:53.197Z,98738.72
2018-06-22T08:36:22.345Z,98745.89
2018-06-22T08:38:51.495Z,98753.13
2018-06-22T08:41:20.660Z,98740.84
2018-06-22T08:43:49.829Z,98743.41
2018-06-22T08:46:19.004Z,98738.28
2018-06-22T08:48:48.409Z,98742.52
2018-06-22T08:51:17.567Z,98741.19
2018-06-22T08:53:46.715Z,98749.73
2018-06-22T08:56:15.881Z,98753.55
2018-06-22T08:58:45.025Z,98751.02
2018-06-22T09:01:15.049Z,98753.53
2018-06-22T09:03:43.341Z,98753.96
2018-06-22T09:06:12.500Z,98754.39
2018-06-22T09:08:41.653Z,98751.46
2018-06-22T09:11:10.813Z,98759.50
2018-06-22T09:13:39.964Z,98764.14
2018-06-22T09:16:09.134Z,98771.35
2018-06-22T09:18:39.800Z,98767.54
2018-06-22T09:21:08.995Z,98768.39
2018-06-22T09:23:38.146Z,98777.28
2018-06-22T09:26:07.324Z,98770.02
2018-06-22T09:28:36.494Z,98769.17
2018-06-22T09:31:05.647Z,98775.09
2018-06-22T09:33:34.821Z,98771.28
2018-06-22T09:36:03.971Z,98769.54
2018-06-22T09:38:33.128Z,98764.87
2018-06-22T09:41:02.287Z,98790.00
2018-06-22T09:43:31.443Z,98763.71
2018-06-22T09:46:00.619Z,98763.61
2018-06-22T09:48:29.847Z,98760.97
2018-06-22T09:50:58.937Z,98750.23
2018-06-22T09:53:28.081Z,98743.95
2018-06-22T09:55:57.245Z,98751.87
2018-06-22T09:58:26.397Z,98754.75
2018-06-22T10:00:55.551Z,98746.87
2018-06-22T10:03:25.516Z,98741.83
2018-06-22T10:05:54.703Z,98746.38
2018-06-22T10:08:23.838Z,98736.94
2018-06-22T10:10:53.027Z,98734.88
2018-06-22T10:13:22.176Z,98746.28
2018-06-22T10:15:51.327Z,98771.19
2018-06-22T10:18:20.501Z,98767.00
2018-06-22T10:20:49.736Z,98765.33
2018-06-22T10:23:18.868Z,98762.34
2018-06-22T10:25:48.041Z,98773.84
2018-06-22T10:28:17.367Z,98762.97
2018-06-22T10:30:46.559Z,98761.78
2018-06-22T10:33:15.712Z,98765.14
2018-06-22T10:35:44.863Z,98762.25
2018-06-22T10:38:14.030Z,98771.29
2018-06-22T10:40:43.203Z,98768.80
2018-06-22T10:43:12.356Z,98761.97
2018-06-22T10:45:41.548Z,98770.19
2018-06-22T10:48:10.689Z,98770.05
2018-06-22T10:50:39.841Z,98769.10
2018-06-22T10:53:08.995Z,98755.81
2018-06-22T10:55:38.173Z,98767.13
2018-06-22T10:58:07.352Z,98748.64
2018-06-22T11:00:36.512Z,98737.55
2018-06-22T11:03:05.743Z,98758.81
2018-06-22T11:05:34.909Z,98794.35
2018-06-22T11:08:04.061Z,98761.38
2018-06-22T11:10:33.222Z,98765.18
2018-06-22T11:13:02.367Z,98768.47
2018-06-22T11:15:31.528Z,98771.02
2018-06-22T11:18:00.869Z,98777.97
2018-06-22T11:20:30.016Z,98776.00
2018-06-22T11:22:59.171Z,98770.04
2018-06-22T11:25:28.340Z,98760.30
2018-06-22T11:27:57.497Z,98767.58
2018-06-22T11:30:26.662Z,98767.83
2018-06-22T11:32:55.888Z,98762.71
2018-06-22T11:35:25.085Z,98772.04
2018-06-22T11:37:54.240Z,98769.32
2018-06-22T11:40:23.505Z,98746.13
2018-06-22T11:42:52.665Z,98789.20
2018-06-22T11:45:21.831Z,98768.63
2018-06-22T11:47:50.975Z,98752.67
2018-06-22T11:50:20.133Z,98752.19
2018-06-22T11:52:49.288Z,98743.72
2018-06-22T11:55:18.458Z,98770.64
2018-06-22T11:57:47.618Z,98760.84
2018-06-22T12:00:16.771Z,98780.21
2018-06-22T12:02:45.921Z,98770.93
2018-06-22T12:05:15.073Z,98771.45
2018-06-22T12:07:44.228Z,98772.39
2018-06-22T12:10:13.405Z,98755.27
2018-06-22T12:12:42.543Z,98768.64
2018-06-22T12:15:11.697Z,98772.23
2018-06-22T12:17:40.853Z,98762.68
2018-06-22T12:20:10.000Z,98759.88
2018-06-22T12:22:39.165Z,98768.27
2018-06-22T12:25:08.322Z,98754.84
2018-06-22T12:27:37.490Z,98761.05
2018-06-22T12:30:06.682Z,98755.05
2018-06-22T12:32:35.825Z,98761.00
2018-06-22T12:35:04.981Z,98756.45
2018-06-22T12:37:34.153Z,98755.45
2018-06-22T12:40:03.323Z,98766.28
2018-06-22T12:42:32.476Z,98758.97
2018-06-22T12:45:01.653Z,98772.94
2018-06-22T12:47:31.052Z,98772.46
2018-06-22T12:50:00.334Z,98776.40
2018-06-22T12:52:29.498Z,98776.86
2018-06-22T12:54:58.647Z,98782.27
2018-06-22T12:57:27.834Z,98780.82
2018-06-22T12:59:56.989Z,98788.03
2018-06-22T13:02:26.132Z,98789.33
2018-06-22T13:04:55.304Z,98780.13
2018-06-22T13:07:24.471Z,98787.41
2018-06-22T13:09:53.646Z,98790.58
2018-06-22T13:12:22.799Z,98789.64
2018-06-22T13:14:52.024Z,98784.08
2018-06-22T13:17:21.181Z,98761.48
2018-06-22T13:19:50.349Z,98775.57
2018-06-22T13:22:19.502Z,98773.13
2018-06-22T13:24:48.669Z,98778.34
2018-06-22T13:27:17.833Z,98772.58
2018-06-22T13:29:46.993Z,98758.47
2018-06-22T13:32:16.153Z,98775.18
2018-06-22T13:34:45.307Z,98795.89
2018-06-22T13:37:14.464Z,98796.17
2018-06-22T13:39:43.621Z,98785.94
2018-06-22T13:42:12.769Z,98787.57
2018-06-22T13:44:41.928Z,98803.98
2018-06-22T13:47:10.793Z,98786.75
2018-06-22T13:49:39.950Z,98809.89
2018-06-22T13:52:09.277Z,98816.75
2018-06-22T13:54:38.443Z,98812.73
2018-06-22T13:57:07.671Z,98822.02
2018-06-22T13:59:36.786Z,98805.27
2018-06-22T14:02:05.932Z,98814.57
2018-06-22T14:04:40.359Z,98812.33
2018-06-22T14:07:09.525Z,98824.11
2018-06-22T14:09:38.677Z,98805.37
2018-06-22T14:12:07.867Z,98806.48
2018-06-22T14:14:37.026Z,98811.50
2018-06-22T14:17:06.223Z,98829.81
2018-06-22T14:19:35.386Z,98813.98
2018-06-22T14:22:04.568Z,98803.24
2018-06-22T14:24:33.732Z,98808.64
2018-06-22T14:27:02.888Z,98802.70
2018-06-22T14:29:32.044Z,98803.49
2018-06-22T14:32:01.217Z,98811.55
2018-06-22T14:34:30.381Z,98813.36
2018-06-22T14:36:59.545Z,98816.66
2018-06-22T14:39:28.699Z,98803.92
2018-06-22T14:41:57.846Z,98798.02
2018-06-22T14:44:27.030Z,98789.55
2018-06-22T14:46:56.700Z,98792.09
2018-06-22T14:49:26.087Z,98790.97
2018-06-22T14:52:00.712Z,98805.39
2018-06-22T14:54:35.277Z,98812.33
2018-06-22T14:57:09.728Z,98818.38
2018-06-22T14:59:44.055Z,98824.12
2018-06-22T15:02:18.487Z,98813.09
2018-06-22T15:04:52.954Z,98809.50
2018-06-22T15:07:27.188Z,98808.30
2018-06-22T15:09:56.327Z,98807.42
2018-06-22T15:12:25.471Z,98822.22
2018-06-22T15:14:54.821Z,98811.78
2018-06-22T15:17:23.986Z,98820.66
2018-06-22T15:19:53.203Z,98825.25
2018-06-22T15:22:22.390Z,98801.98
2018-06-22T15:24:51.590Z,98827.75
2018-06-22T15:27:20.732Z,98824.16
2018-06-22T15:29:49.914Z,98804.45
2018-06-22T15:32:19.069Z,98813.95
2018-06-22T15:36:54.408Z,98825.06
2018-06-22T15:39:28.892Z,98823.16
2018-06-22T15:42:03.297Z,98805.67
2018-06-22T15:44:37.594Z,98806.39
2018-06-22T15:47:12.001Z,98830.40
2018-06-22T15:49:46.344Z,98813.20
2018-06-22T15:52:20.619Z,98816.49
2018-06-22T15:54:54.992Z,98823.91
2018-06-22T15:57:24.167Z,98821.37
2018-06-22T15:59:53.339Z,98811.83
2018-06-22T16:02:27.766Z,98814.28
2018-06-22T16:04:57.049Z,98820.13
2018-06-22T16:07:26.256Z,98828.34
2018-06-22T16:10:01.179Z,98821.97
2018-06-22T16:12:33.704Z,98832.55
2018-06-22T16:15:07.981Z,98830.67
2018-06-22T16:17:42.437Z,98832.14
2018-06-22T16:20:16.772Z,98831.30
2018-06-22T16:22:51.121Z,98857.13
2018-06-22T16:25:25.473Z,98847.21
2018-06-22T16:27:59.983Z,98855.05
2018-06-22T16:30:29.452Z,98841.52
2018-06-22T16:32:58.597Z,98842.58
2018-06-22T16:35:27.841Z,98877.73
2018-06-22T16:37:57.235Z,98846.19
2018-06-22T16:40:26.922Z,98855.81
2018-06-22T16:42:56.189Z,98840.38
2018-06-22T16:45:32.663Z,98847.78
2018-06-22T16:48:02.362Z,98856.22
2018-06-22T16:50:31.608Z,98863.05
2018-06-22T16:53:00.761Z,98841.13
2018-06-22T16:55:29.991Z,98852.72
2018-06-22T16:57:59.149Z,98852.11
2018-06-22T17:00:28.317Z,98853.89
2018-06-22T17:02:58.984Z,98851.41
2018-06-22T17:05:28.623Z,98860.61
2018-06-22T17:08:03.430Z,98858.02
2018-06-22T17:10:38.247Z,98856.79
2018-06-22T17:15:16.842Z,98860.59
2018-06-22T17:17:51.647Z,98871.27
2018-06-22T17:20:21.301Z,98867.27
2018-06-22T17:22:50.906Z,98874.39
2018-06-22T17:25:20.614Z,98872.41
2018-06-22T17:27:50.220Z,98869.10
2018-06-22T17:30:19.837Z,98880.30
2018-06-22T17:32:49.435Z,98873.45
2018-06-22T17:35:19.182Z,98873.95
2018-06-22T17:37:48.736Z,98873.44
2018-06-22T17:40:18.369Z,98868.45
2018-06-22T17:42:47.941Z,98877.29
2018-06-22T17:45:17.440Z,98877.34
2018-06-22T17:47:46.897Z,98877.02
2018-06-22T17:50:21.630Z,98875.53
2018-06-22T17:52:51.093Z,98871.03
2018-06-22T17:55:20.738Z,98876.86
2018-06-22T17:57:50.195Z,98871.34
2018-06-22T18:00:24.850Z,98867.26
2018-06-22T18:02:59.581Z,98873.99
2018-06-22T18:05:34.126Z,98876.11
2018-06-22T18:08:03.832Z,98877.64
2018-06-22T18:10:38.536Z,98880.00
2018-06-22T18:13:08.138Z,98888.73
2018-06-22T18:15:37.741Z,98890.83
2018-06-22T18:18:07.400Z,98889.22
2018-06-22T18:20:36.990Z,98890.98
2018-06-22T18:23:06.831Z,98889.35
2018-06-22T18:25:36.505Z,98895.80
2018-06-22T18:28:06.551Z,98898.31
2018-06-22T18:30:36.434Z,98901.72
2018-06-22T18:33:06.183Z,98901.35
2018-06-22T18:35:37.329Z,98904.33
2018-06-22T18:38:07.534Z,98906.48
2018-06-22T18:40:37.297Z,98909.03
2018-06-22T18:43:07.037Z,98903.45
2018-06-22T18:45:36.824Z,98907.68
2018-06-22T18:48:06.692Z,98906.82
2018-06-22T18:50:36.353Z,98903.84
2018-06-22T18:53:11.189Z,98900.00
2018-06-22T18:55:46.165Z,98902.13
2018-06-22T18:58:21.179Z,98900.88
2018-06-22T19:00:55.973Z,98907.23
2018-06-22T19:03:30.827Z,98910.27
2018-06-22T19:06:00.546Z,98909.44
2018-06-22T19:08:30.406Z,98911.16
2018-06-22T19:11:00.369Z,98912.86
2018-06-22T19:13:30.404Z,98912.02
2018-06-22T19:15:59.982Z,98924.37
2018-06-22T19:18:29.674Z,98921.41
2018-06-22T19:20:59.147Z,98922.67
2018-06-22T19:23:28.686Z,98918.02
2018-06-22T19:25:58.382Z,98918.46
2018-06-22T19:28:28.091Z,98920.55
2018-06-22T19:30:57.634Z,98918.86
2018-06-22T19:33:27.152Z,98923.97
2018-06-22T19:35:56.958Z,98929.48
2018-06-22T19:38:26.609Z,98933.30
2018-06-22T19:40:56.116Z,98939.22
2018-06-22T19:43:30.632Z,98935.01
2018-06-22T19:46:05.366Z,98943.48
2018-06-22T19:48:39.704Z,98941.77
2018-06-22T19:51:14.038Z,98943.89
2018-06-22T19:53:45.947Z,98943.91
2018-06-22T19:56:15.121Z,98940.11
2018-06-22T19:58:44.268Z,98945.61
2018-06-22T20:01:13.441Z,98947.72
2018-06-22T20:03:42.603Z,98938.41
2018-06-22T20:06:11.769Z,98941.36
2018-06-22T20:08:40.940Z,98942.66
2018-06-22T20:11:10.803Z,98945.62
2018-06-22T20:13:41.840Z,98952.42
2018-06-22T20:16:11.022Z,98952.84
2018-06-22T20:18:40.215Z,98953.22
2018-06-22T20:21:09.993Z,98953.65
2018-06-22T20:23:39.206Z,98951.99
2018-06-22T20:26:08.365Z,98961.73
2018-06-22T20:28:37.640Z,98963.84
2018-06-22T20:31:06.787Z,98967.62
2018-06-22T20:33:36.032Z,98971.86
2018-06-22T20:36:10.681Z,98973.98
2018-06-22T20:38:45.132Z,98978.20
2018-06-22T20:41:19.537Z,98972.70
2018-06-22T20:46:00.927Z,98975.66
2018-06-22T20:48:35.427Z,98979.86
2018-06-22T20:51:04.645Z,98987.92
2018-06-22T20:53:33.887Z,98985.36
2018-06-22T20:56:03.261Z,98985.34
2018-06-22T20:58:32.490Z,98993.44
2018-06-22T21:01:01.714Z,98986.63
2018-06-22T21:03:31.020Z,98989.16
2018-06-22T21:06:00.175Z,98994.20
2018-06-22T21:08:29.350Z,98997.63
2018-06-22T21:10:58.518Z,99000.14
2018-06-22T21:13:27.760Z,99002.67
2018-06-22T21:15:56.874Z,99001.78
2018-06-22T21:18:26.213Z,99003.05
2018-06-22T21:21:00.499Z,98996.69
2018-06-22T21:23:29.669Z,99000.55
2018-06-22T21:25:58.946Z,99000.96
2018-06-22T21:28:33.425Z,98996.30
2018-06-22T21:31:07.842Z,99003.50
2018-06-22T21:33:42.144Z,98994.11
2018-06-22T21:36:16.456Z,98991.14
2018-06-22T21:38:50.763Z,99000.45
2018-06-22T21:41:19.915Z,99008.88
2018-06-22T21:43:49.132Z,99009.67
2018-06-22T21:46:18.338Z,99007.56
2018-06-22T21:48:47.502Z,99004.99
2018-06-22T21:51:16.653Z,99008.28
2018-06-22T21:53:45.832Z,99008.36
2018-06-22T21:56:14.999Z,99004.04
2018-06-22T21:58:44.435Z,98999.77
2018-06-22T22:01:13.631Z,99003.27
2018-06-22T22:03:42.805Z,99003.20
2018-06-22T22:06:12.016Z,99006.45
2018-06-22T22:08:41.198Z,99007.28
2018-06-22T22:11:11.120Z,99006.41
2018-06-22T22:13:40.992Z,99008.09
2018-06-22T22:16:10.488Z,99005.58
2018-06-22T22:18:39.684Z,99009.33
2018-06-22T22:21:08.847Z,99004.30
2018-06-22T22:23:38.172Z,99008.12
2018-06-22T22:26:07.342Z,99005.55
2018-06-22T22:28:36.558Z,99005.18
2018-06-22T22:31:05.757Z,98999.73
2018-06-22T22:33:34.932Z,98995.52
2018-06-22T22:36:04.146Z,98998.03
2018-06-22T22:38:33.326Z,99000.20
2018-06-22T22:41:02.520Z,99001.86
2018-06-22T22:43:31.692Z,99002.28
2018-06-22T22:46:00.847Z,99001.40
2018-06-22T22:48:30.108Z,98998.86
2018-06-22T22:50:59.292Z,98996.73
2018-06-22T22:53:28.427Z,98991.62
2018-06-22T22:55:57.591Z,99002.58
2018-06-22T22:58:26.819Z,98992.81
2018-06-22T23:00:55.991Z,98994.03
2018-06-22T23:03:25.149Z,98999.91
2018-06-22T23:05:54.353Z,99004.94
2018-06-22T23:08:23.523Z,99003.34
2018-06-22T23:10:52.697Z,99004.17
2018-06-22T23:13:21.870Z,98998.24
2018-06-22T23:15:51.093Z,98997.84
2018-06-22T23:18:20.249Z,99002.19
2018-06-22T23:20:49.461Z,98995.77
2018-06-22T23:23:35.416Z,99001.33
2018-06-22T23:26:05.004Z,98997.91
2018-06-22T23:28:34.185Z,98986.13
2018-06-22T23:31:04.434Z,98984.00
2018-06-22T23:33:33.928Z,98983.55
2018-06-22T23:36:03.912Z,98983.09
2018-06-22T23:38:33.564Z,98978.36
2018-06-22T23:41:02.739Z,98982.21
2018-06-22T23:43:34.059Z,98980.13
2018-06-22T23:46:03.281Z,98986.42
2018-06-22T23:48:32.483Z,98981.89
2018-06-22T23:51:01.653Z,98979.37
2018-06-22T23:53:30.823Z,98975.92
2018-06-22T23:55:59.984Z,98985.19
2018-06-22T23:58:29.150Z,98983.39
